createdAt,value
2023-01-29T00:00:16.975Z,-2.72
2023-01-29T00:02:46.885Z,-2.72
2023-01-29T00:05:27.430Z,-2.71
2023-01-29T00:07:56.959Z,-2.72
2023-01-29T00:10:25.738Z,-2.73
2023-01-29T00:12:54.112Z,-2.73
2023-01-29T00:15:22.583Z,-2.73
2023-01-29T00:17:51.295Z,-2.74
2023-01-29T00:20:20.041Z,-2.75
2023-01-29T00:22:48.981Z,-2.75
2023-01-29T00:25:17.740Z,-2.75
2023-01-29T00:27:46.246Z,-2.75
2023-01-29T00:30:19.771Z,-2.76
2023-01-29T00:32:48.683Z,-2.73
2023-01-29T00:35:17.515Z,-2.71
2023-01-29T00:37:46.085Z,-2.71
2023-01-29T00:40:15.250Z,-2.70
2023-01-29T00:43:05.479Z,-2.70
2023-01-29T00:45:36.814Z,-2.70
2023-01-29T00:48:07.658Z,-2.71
2023-01-29T00:50:37.115Z,-2.72
2023-01-29T00:53:06.259Z,-2.71
2023-01-29T00:55:35.413Z,-2.71
2023-01-29T00:58:03.939Z,-2.71
2023-01-29T01:00:33.472Z,-2.73
2023-01-29T01:03:07.677Z,-2.74
2023-01-29T01:05:37.235Z,-2.74
2023-01-29T01:08:25.830Z,-2.74
2023-01-29T01:11:05.822Z,-2.72
2023-01-29T01:13:34.702Z,-2.71
2023-01-29T01:16:12.579Z,-2.69
2023-01-29T01:18:41.791Z,-2.70
2023-01-29T01:21:10.248Z,-2.70
2023-01-29T01:23:39.136Z,-2.70
2023-01-29T01:26:11.174Z,-2.68
2023-01-29T01:28:39.901Z,-2.67
2023-01-29T01:31:10.459Z,-2.66
2023-01-29T01:33:39.215Z,-2.66
2023-01-29T01:36:09.961Z,-2.65
2023-01-29T01:38:44.870Z,-2.64
2023-01-29T01:41:19.697Z,-2.64
2023-01-29T01:43:54.131Z,-2.64
2023-01-29T01:46:22.822Z,-2.63
2023-01-29T01:49:04.129Z,-2.62
2023-01-29T01:51:33.489Z,-2.62
2023-01-29T01:54:09.678Z,-2.63
2023-01-29T01:56:41.666Z,-2.63
2023-01-29T01:59:11.647Z,-2.64
2023-01-29T02:01:43.006Z,-2.64
2023-01-29T02:04:32.556Z,-2.65
2023-01-29T02:07:21.621Z,-2.65
2023-01-29T02:09:53.494Z,-2.66
2023-01-29T02:12:23.109Z,-2.65
2023-01-29T02:14:51.576Z,-2.64
2023-01-29T02:17:20.433Z,-2.65
2023-01-29T02:20:11.262Z,-2.66
2023-01-29T02:23:03.622Z,-2.66
2023-01-29T02:25:38.227Z,-2.66
2023-01-29T02:28:14.586Z,-2.65
2023-01-29T02:30:48.291Z,-2.64
2023-01-29T02:33:22.526Z,-2.64
2023-01-29T02:35:56.640Z,-2.65
2023-01-29T02:38:34.896Z,-2.67
2023-01-29T02:41:39.934Z,-2.67
2023-01-29T02:44:37.899Z,-2.67
2023-01-29T02:47:30.907Z,-2.65
2023-01-29T02:50:01.141Z,-2.65
2023-01-29T02:53:22.168Z,-2.65
2023-01-29T02:55:58.200Z,-2.65
2023-01-29T02:58:42.025Z,-2.66
2023-01-29T03:01:23.839Z,-2.67
2023-01-29T03:03:56.792Z,-2.67
2023-01-29T03:06:30.841Z,-2.68
2023-01-29T03:09:06.766Z,-2.70
2023-01-29T03:11:40.184Z,-2.69
2023-01-29T03:14:17.193Z,-2.68
2023-01-29T03:16:55.599Z,-2.69
2023-01-29T03:19:39.012Z,-2.66
2023-01-29T03:22:12.206Z,-2.65
2023-01-29T03:25:13.470Z,-2.65
2023-01-29T03:28:10.372Z,-2.66
2023-01-29T03:31:03.892Z,-2.66
2023-01-29T03:34:01.100Z,-2.66
2023-01-29T03:36:38.366Z,-2.65
2023-01-29T03:39:08.775Z,-2.64
2023-01-29T03:41:41.063Z,-2.63
2023-01-29T03:44:37.647Z,-2.62
2023-01-29T03:47:30.601Z,-2.61
2023-01-29T03:50:24.274Z,-2.63
2023-01-29T03:53:07.706Z,-2.65
2023-01-29T03:55:44.222Z,-2.66
2023-01-29T03:58:25.716Z,-2.61
2023-01-29T04:01:00.399Z,-2.61
2023-01-29T04:03:40.175Z,-2.61
2023-01-29T04:06:13.017Z,-2.62
2023-01-29T04:08:58.834Z,-2.61
2023-01-29T04:11:27.840Z,-2.60
2023-01-29T04:13:57.145Z,-2.60
2023-01-29T04:16:29.405Z,-2.62
2023-01-29T04:19:15.462Z,-2.64
2023-01-29T04:21:44.662Z,-2.66
2023-01-29T04:24:13.257Z,-2.66
2023-01-29T04:27:21.463Z,-2.65
2023-01-29T04:30:16.341Z,-2.64
2023-01-29T04:33:27.455Z,-2.64
2023-01-29T04:36:29.979Z,-2.64
2023-01-29T04:39:17.751Z,-2.64
2023-01-29T04:42:08.547Z,-2.65
2023-01-29T04:44:39.906Z,-2.66
2023-01-29T04:47:11.626Z,-2.65
2023-01-29T04:49:47.956Z,-2.67
2023-01-29T04:52:38.631Z,-2.66
2023-01-29T04:55:20.264Z,-2.66
2023-01-29T04:58:05.236Z,-2.65
2023-01-29T05:00:40.321Z,-2.63
2023-01-29T05:03:10.035Z,-2.61
2023-01-29T05:05:40.359Z,-2.61
2023-01-29T05:08:09.099Z,-2.58
2023-01-29T05:10:38.446Z,-2.57
2023-01-29T05:13:07.395Z,-2.57
2023-01-29T05:15:40.863Z,-2.57
2023-01-29T05:18:10.456Z,-2.56
2023-01-29T05:20:40.377Z,-2.53
2023-01-29T05:23:19.382Z,-2.53
2023-01-29T05:25:48.491Z,-2.52
2023-01-29T05:28:17.544Z,-2.49
2023-01-29T05:30:51.495Z,-2.47
2023-01-29T05:33:21.003Z,-2.46
2023-01-29T05:35:50.704Z,-2.46
2023-01-29T05:38:19.293Z,-2.45
2023-01-29T05:40:47.879Z,-2.44
2023-01-29T05:43:21.130Z,-2.42
2023-01-29T05:45:56.919Z,-2.37
2023-01-29T05:48:26.125Z,-2.32
2023-01-29T05:50:59.839Z,-2.29
2023-01-29T05:53:31.688Z,-2.27
2023-01-29T05:56:04.022Z,-2.24
2023-01-29T05:58:35.522Z,-2.23
2023-01-29T06:01:20.571Z,-2.22
2023-01-29T06:03:49.256Z,-2.19
2023-01-29T06:06:18.060Z,-2.19
2023-01-29T06:08:46.938Z,-2.19
2023-01-29T06:11:15.419Z,-2.17
2023-01-29T06:13:44.923Z,-2.13
2023-01-29T06:16:13.862Z,-2.11
2023-01-29T06:18:42.221Z,-2.11
2023-01-29T06:21:12.446Z,-2.10
2023-01-29T06:23:41.161Z,-2.10
2023-01-29T06:26:12.822Z,-2.08
2023-01-29T06:28:41.382Z,-2.07
2023-01-29T06:31:37.691Z,-2.08
2023-01-29T06:33:58.791Z,-2.08
2023-01-29T06:36:27.414Z,-2.08
2023-01-29T06:38:59.272Z,-2.09
2023-01-29T06:41:28.979Z,-2.06
2023-01-29T06:43:57.467Z,-2.04
2023-01-29T06:46:26.263Z,-2.01
2023-01-29T06:48:54.791Z,-2.03
2023-01-29T06:51:25.524Z,-2.04
2023-01-29T06:53:56.394Z,-2.03
2023-01-29T06:56:24.948Z,-2.02
2023-01-29T06:58:53.426Z,-2.01
2023-01-29T07:01:35.065Z,-2.03
2023-01-29T07:04:04.706Z,-2.04
2023-01-29T07:06:33.647Z,-2.03
2023-01-29T07:09:03.478Z,-2.01
2023-01-29T07:11:35.508Z,-2.01
2023-01-29T07:14:04.489Z,-2.00
2023-01-29T07:16:33.215Z,-1.96
2023-01-29T07:19:02.090Z,-1.92
2023-01-29T07:21:31.482Z,-1.88
2023-01-29T07:23:59.956Z,-1.87
2023-01-29T07:26:28.851Z,-1.85
2023-01-29T07:28:57.432Z,-1.82
2023-01-29T07:31:25.992Z,-1.77
2023-01-29T07:33:55.527Z,-1.72
2023-01-29T07:36:24.406Z,-1.66
2023-01-29T07:38:53.226Z,-1.61
2023-01-29T07:41:23.211Z,-1.57
2023-01-29T07:43:51.822Z,-1.52
2023-01-29T07:46:20.244Z,-1.47
2023-01-29T07:48:50.863Z,-1.37
2023-01-29T07:51:21.534Z,-1.30
2023-01-29T07:53:50.307Z,-1.26
2023-01-29T07:56:23.314Z,-1.21
2023-01-29T07:58:52.108Z,-1.18
2023-01-29T08:01:21.165Z,-1.16
2023-01-29T08:03:51.341Z,-1.16
2023-01-29T08:06:20.278Z,-1.14
2023-01-29T08:08:49.059Z,-1.13
2023-01-29T08:11:18.088Z,-1.17
2023-01-29T08:13:46.892Z,-1.15
2023-01-29T08:16:15.517Z,-1.11
2023-01-29T08:18:47.952Z,-1.06
2023-01-29T08:21:16.739Z,-1.02
2023-01-29T08:23:45.525Z,-1.02
2023-01-29T08:26:13.898Z,-1.02
2023-01-29T08:28:42.752Z,-0.98
2023-01-29T08:31:17.933Z,-0.93
2023-01-29T08:33:51.156Z,-0.92
2023-01-29T08:36:19.898Z,-0.91
2023-01-29T08:38:48.749Z,-0.88
2023-01-29T08:41:17.784Z,-0.82
2023-01-29T08:43:46.786Z,-0.77
2023-01-29T08:46:15.412Z,-0.77
2023-01-29T08:48:44.999Z,-0.77
2023-01-29T08:51:13.655Z,-0.73
2023-01-29T08:53:44.594Z,-0.71
2023-01-29T08:56:13.181Z,-0.69
2023-01-29T08:58:42.695Z,-0.68
2023-01-29T09:01:12.748Z,-0.72
2023-01-29T09:03:43.569Z,-0.74
2023-01-29T09:06:12.905Z,-0.70
2023-01-29T09:08:43.727Z,-0.68
2023-01-29T09:11:12.426Z,-0.66
2023-01-29T09:13:40.956Z,-0.63
2023-01-29T09:16:10.557Z,-0.64
2023-01-29T09:18:39.144Z,-0.66
2023-01-29T09:21:07.922Z,-0.67
2023-01-29T09:23:36.406Z,-0.65
2023-01-29T09:26:05.193Z,-0.63
2023-01-29T09:28:36.456Z,-0.64
2023-01-29T09:31:05.120Z,-0.61
2023-01-29T09:33:33.819Z,-0.57
2023-01-29T09:36:03.808Z,-0.56
2023-01-29T09:38:32.534Z,-0.57
2023-01-29T09:41:07.835Z,-0.56
2023-01-29T09:43:52.828Z,-0.55
2023-01-29T09:46:34.003Z,-0.55
2023-01-29T09:49:07.727Z,-0.54
2023-01-29T09:51:40.419Z,-0.51
2023-01-29T09:54:14.104Z,-0.46
2023-01-29T09:56:43.084Z,-0.43
2023-01-29T09:59:13.414Z,-0.37
2023-01-29T10:02:09.560Z,-0.34
2023-01-29T10:04:44.642Z,-0.35
2023-01-29T10:07:35.176Z,-0.36
2023-01-29T10:10:12.445Z,-0.36
2023-01-29T10:12:52.821Z,-0.35
2023-01-29T10:15:38.504Z,-0.35
2023-01-29T10:18:33.611Z,-0.32
2023-01-29T10:21:36.395Z,-0.27
2023-01-29T10:24:07.548Z,-0.19
2023-01-29T10:26:38.322Z,-0.14
2023-01-29T10:29:07.525Z,-0.12
2023-01-29T10:31:39.186Z,-0.13
2023-01-29T10:34:13.826Z,-0.17
2023-01-29T10:36:46.473Z,-0.22
2023-01-29T10:39:19.137Z,-0.26
2023-01-29T10:42:07.075Z,-0.32
2023-01-29T10:44:41.496Z,-0.35
2023-01-29T10:47:41.520Z,-0.32
2023-01-29T10:50:18.179Z,-0.32
2023-01-29T10:52:57.333Z,-0.32
2023-01-29T10:55:51.500Z,-0.29
2023-01-29T10:58:23.576Z,-0.25
2023-01-29T11:00:52.434Z,-0.22
2023-01-29T11:03:29.443Z,-0.18
2023-01-29T11:06:12.543Z,-0.16
2023-01-29T11:08:53.407Z,-0.14
2023-01-29T11:11:22.722Z,-0.14
2023-01-29T11:13:59.015Z,-0.16
2023-01-29T11:16:28.727Z,-0.13
2023-01-29T11:18:59.011Z,-0.06
2023-01-29T11:21:28.474Z,-0.02
2023-01-29T11:24:07.656Z,-0.01
2023-01-29T11:26:38.554Z,0.03
2023-01-29T11:29:38.314Z,0.03
2023-01-29T11:32:15.397Z,0.03
2023-01-29T11:34:56.772Z,-0.00
2023-01-29T11:37:35.473Z,-0.02
2023-01-29T11:40:19.786Z,-0.04
2023-01-29T11:42:48.745Z,-0.03
2023-01-29T11:45:20.428Z,-0.01
2023-01-29T11:47:56.551Z,0.03
2023-01-29T11:50:30.359Z,0.06
2023-01-29T11:53:02.174Z,0.08
2023-01-29T11:55:49.799Z,0.09
2023-01-29T11:58:25.364Z,0.10
2023-01-29T12:00:55.630Z,0.11
2023-01-29T12:03:35.887Z,0.11
2023-01-29T12:06:09.223Z,0.12
2023-01-29T12:08:38.802Z,0.09
2023-01-29T12:11:16.475Z,0.07
2023-01-29T12:13:45.462Z,0.09
2023-01-29T12:16:44.869Z,0.13
2023-01-29T12:19:19.705Z,0.14
2023-01-29T12:21:51.487Z,0.11
2023-01-29T12:24:32.440Z,0.10
2023-01-29T12:27:15.003Z,0.09
2023-01-29T12:29:46.190Z,0.14
2023-01-29T12:32:33.007Z,0.16
2023-01-29T12:35:06.564Z,0.13
2023-01-29T12:37:45.737Z,0.13
2023-01-29T12:40:18.943Z,0.18
2023-01-29T12:42:50.158Z,0.23
2023-01-29T12:45:19.950Z,0.23
2023-01-29T12:47:56.675Z,0.23
2023-01-29T12:50:35.650Z,0.24
2023-01-29T12:53:07.136Z,0.27
2023-01-29T12:55:55.645Z,0.27
2023-01-29T12:58:29.912Z,0.28
2023-01-29T13:01:19.732Z,0.31
2023-01-29T13:03:57.381Z,0.29
2023-01-29T13:06:29.104Z,0.27
2023-01-29T13:09:05.302Z,0.25
2023-01-29T13:11:42.355Z,0.21
2023-01-29T13:14:21.214Z,0.16
2023-01-29T13:16:52.206Z,0.15
2023-01-29T13:19:32.817Z,0.15
2023-01-29T13:22:02.638Z,0.18
2023-01-29T13:24:40.355Z,0.19
2023-01-29T13:27:17.961Z,0.19
2023-01-29T13:29:46.942Z,0.19
2023-01-29T13:32:29.324Z,0.19
2023-01-29T13:34:59.621Z,0.16
2023-01-29T13:37:30.285Z,0.12
2023-01-29T13:39:59.701Z,0.09
2023-01-29T13:42:42.414Z,0.09
2023-01-29T13:45:19.985Z,0.07
2023-01-29T13:47:48.471Z,0.06
2023-01-29T13:50:31.202Z,0.04
2023-01-29T13:53:02.544Z,0.07
2023-01-29T13:55:31.937Z,0.09
2023-01-29T13:58:01.609Z,0.11
2023-01-29T14:00:33.458Z,0.11
2023-01-29T14:03:02.010Z,0.08
2023-01-29T14:05:30.755Z,0.06
2023-01-29T14:08:00.590Z,0.06
2023-01-29T14:10:36.181Z,0.03
2023-01-29T14:13:19.535Z,-0.01
2023-01-29T14:15:57.327Z,-0.05
2023-01-29T14:18:26.939Z,-0.06
2023-01-29T14:20:57.556Z,-0.08
2023-01-29T14:23:42.269Z,-0.10
2023-01-29T14:26:32.682Z,-0.10
2023-01-29T14:29:18.815Z,-0.10
2023-01-29T14:32:20.730Z,-0.10
2023-01-29T14:34:55.958Z,-0.08
2023-01-29T14:37:37.219Z,-0.08
2023-01-29T14:40:15.822Z,-0.08
2023-01-29T14:43:03.947Z,-0.09
2023-01-29T14:45:34.428Z,-0.11
2023-01-29T14:48:09.552Z,-0.11
2023-01-29T14:50:41.270Z,-0.11
2023-01-29T14:53:35.177Z,-0.10
2023-01-29T14:56:10.559Z,-0.10
2023-01-29T14:58:43.022Z,-0.10
2023-01-29T15:01:27.281Z,-0.08
2023-01-29T15:04:07.726Z,-0.07
2023-01-29T15:06:42.246Z,-0.06
2023-01-29T15:09:36.800Z,-0.07
2023-01-29T15:12:24.626Z,-0.08
2023-01-29T15:15:16.514Z,-0.08
2023-01-29T15:18:08.880Z,-0.06
2023-01-29T15:20:39.181Z,-0.05
2023-01-29T15:23:25.476Z,-0.06
2023-01-29T15:25:55.902Z,-0.06
2023-01-29T15:28:24.200Z,-0.03
2023-01-29T15:30:57.150Z,-0.00
2023-01-29T15:33:26.179Z,0.03
2023-01-29T15:36:06.743Z,0.05
2023-01-29T15:38:36.269Z,0.04
2023-01-29T15:41:20.609Z,0.03
2023-01-29T15:43:50.811Z,0.00
2023-01-29T15:46:24.344Z,-0.01
2023-01-29T15:48:54.120Z,0.01
2023-01-29T15:51:25.011Z,-0.00
2023-01-29T15:54:04.247Z,-0.02
2023-01-29T15:56:54.045Z,-0.02
2023-01-29T15:59:26.951Z,-0.01
2023-01-29T16:01:55.719Z,-0.01
2023-01-29T16:04:29.012Z,-0.02
2023-01-29T16:06:59.807Z,-0.05
2023-01-29T16:09:28.978Z,-0.08
2023-01-29T16:11:57.964Z,-0.10
2023-01-29T16:14:27.533Z,-0.10
2023-01-29T16:16:56.809Z,-0.11
2023-01-29T16:19:27.422Z,-0.11
2023-01-29T16:21:58.575Z,-0.11
2023-01-29T16:24:27.343Z,-0.13
2023-01-29T16:27:07.580Z,-0.14
2023-01-29T16:29:36.539Z,-0.16
2023-01-29T16:32:06.921Z,-0.17
2023-01-29T16:34:37.126Z,-0.20
2023-01-29T16:37:07.215Z,-0.20
2023-01-29T16:39:38.771Z,-0.26
2023-01-29T16:42:10.967Z,-0.31
2023-01-29T16:45:06.294Z,-0.32
2023-01-29T16:47:37.845Z,-0.31
2023-01-29T16:50:43.308Z,-0.32
2023-01-29T16:53:19.901Z,-0.32
2023-01-29T16:55:50.009Z,-0.33
2023-01-29T16:58:23.989Z,-0.33
2023-01-29T17:00:59.692Z,-0.32
2023-01-29T17:03:28.846Z,-0.31
2023-01-29T17:05:57.310Z,-0.30
2023-01-29T17:08:34.975Z,-0.29
2023-01-29T17:11:03.688Z,-0.27
2023-01-29T17:13:44.564Z,-0.24
2023-01-29T17:16:19.652Z,-0.24
2023-01-29T17:18:48.621Z,-0.26
2023-01-29T17:21:17.179Z,-0.27
2023-01-29T17:23:45.963Z,-0.29
2023-01-29T17:26:14.635Z,-0.30
2023-01-29T17:28:43.235Z,-0.30
2023-01-29T17:31:11.872Z,-0.29
2023-01-29T17:33:42.634Z,-0.29
2023-01-29T17:36:12.633Z,-0.27
2023-01-29T17:38:41.647Z,-0.27
2023-01-29T17:41:21.654Z,-0.27
2023-01-29T17:43:50.425Z,-0.27
2023-01-29T17:46:19.094Z,-0.29
2023-01-29T17:48:49.515Z,-0.28
2023-01-29T17:51:18.200Z,-0.29
2023-01-29T17:53:47.499Z,-0.28
2023-01-29T17:56:23.846Z,-0.24
2023-01-29T17:58:52.504Z,-0.19
2023-01-29T18:01:21.139Z,-0.18
2023-01-29T18:03:50.815Z,-0.20
2023-01-29T18:06:27.341Z,-0.23
2023-01-29T18:08:56.759Z,-0.26
2023-01-29T18:11:25.578Z,-0.27
2023-01-29T18:13:55.320Z,-0.28
2023-01-29T18:16:24.871Z,-0.28
2023-01-29T18:18:53.718Z,-0.29
2023-01-29T18:21:23.012Z,-0.28
2023-01-29T18:23:52.378Z,-0.26
2023-01-29T18:26:22.468Z,-0.24
2023-01-29T18:28:51.942Z,-0.23
2023-01-29T18:31:22.027Z,-0.21
2023-01-29T18:33:50.866Z,-0.18
2023-01-29T18:36:20.253Z,-0.16
2023-01-29T18:38:49.248Z,-0.15
2023-01-29T18:41:17.832Z,-0.15
2023-01-29T18:43:46.242Z,-0.15
2023-01-29T18:46:15.159Z,-0.17
2023-01-29T18:48:43.946Z,-0.20
2023-01-29T18:51:12.815Z,-0.20
2023-01-29T18:53:45.967Z,-0.18
2023-01-29T18:56:15.476Z,-0.16
2023-01-29T18:58:52.183Z,-0.14
2023-01-29T19:01:24.470Z,-0.14
2023-01-29T19:03:53.243Z,-0.14
2023-01-29T19:06:21.712Z,-0.14
2023-01-29T19:08:50.585Z,-0.14
2023-01-29T19:11:19.875Z,-0.16
2023-01-29T19:13:50.205Z,-0.19
2023-01-29T19:16:19.062Z,-0.23
2023-01-29T19:18:47.784Z,-0.26
2023-01-29T19:21:16.732Z,-0.28
2023-01-29T19:23:45.942Z,-0.31
2023-01-29T19:26:15.010Z,-0.33
2023-01-29T19:28:43.756Z,-0.35
2023-01-29T19:31:12.796Z,-0.35
2023-01-29T19:33:41.940Z,-0.41
2023-01-29T19:36:12.074Z,-0.43
2023-01-29T19:38:42.070Z,-0.44
2023-01-29T19:41:10.940Z,-0.45
2023-01-29T19:43:42.224Z,-0.42
2023-01-29T19:46:11.014Z,-0.40
2023-01-29T19:48:39.908Z,-0.41
2023-01-29T19:51:10.034Z,-0.37
2023-01-29T19:53:39.531Z,-0.36
2023-01-29T19:56:10.806Z,-0.35
2023-01-29T19:58:39.571Z,-0.33
2023-01-29T20:01:16.693Z,-0.31
2023-01-29T20:03:46.978Z,-0.32
2023-01-29T20:06:17.432Z,-0.34
2023-01-29T20:08:47.000Z,-0.35
2023-01-29T20:11:16.540Z,-0.36
2023-01-29T20:13:50.328Z,-0.38
2023-01-29T20:16:19.386Z,-0.40
2023-01-29T20:18:49.685Z,-0.40
2023-01-29T20:21:21.189Z,-0.39
2023-01-29T20:23:50.829Z,-0.39
2023-01-29T20:26:19.636Z,-0.39
2023-01-29T20:28:48.716Z,-0.38
2023-01-29T20:31:17.739Z,-0.38
2023-01-29T20:33:46.266Z,-0.38
2023-01-29T20:36:15.146Z,-0.37
2023-01-29T20:38:44.294Z,-0.37
2023-01-29T20:41:14.193Z,-0.36
2023-01-29T20:43:43.668Z,-0.37
2023-01-29T20:46:12.267Z,-0.37
2023-01-29T20:48:44.325Z,-0.36
2023-01-29T20:51:15.726Z,-0.38
2023-01-29T20:53:48.300Z,-0.40
2023-01-29T20:56:17.266Z,-0.42
2023-01-29T20:58:47.144Z,-0.45
2023-01-29T21:01:18.110Z,-0.50
2023-01-29T21:03:47.094Z,-0.55
2023-01-29T21:06:16.082Z,-0.58
2023-01-29T21:08:45.304Z,-0.62
2023-01-29T21:11:14.069Z,-0.64
2023-01-29T21:13:44.270Z,-0.65
2023-01-29T21:16:13.429Z,-0.65
2023-01-29T21:18:41.849Z,-0.67
2023-01-29T21:21:11.057Z,-0.71
2023-01-29T21:23:39.745Z,-0.74
2023-01-29T21:26:09.112Z,-0.77
2023-01-29T21:28:37.726Z,-0.77
2023-01-29T21:31:10.241Z,-0.77
2023-01-29T21:33:38.785Z,-0.77
2023-01-29T21:36:08.635Z,-0.79
2023-01-29T21:38:37.259Z,-0.84
2023-01-29T21:41:08.252Z,-0.85
2023-01-29T21:43:37.125Z,-0.84
2023-01-29T21:46:12.326Z,-0.83
2023-01-29T21:48:41.065Z,-0.84
2023-01-29T21:51:10.137Z,-0.87
2023-01-29T21:53:38.520Z,-0.90
2023-01-29T21:56:07.469Z,-0.93
2023-01-29T21:58:35.898Z,-0.96
2023-01-29T22:01:56.018Z,-1.00
2023-01-29T22:04:25.288Z,-1.03
2023-01-29T22:06:53.801Z,-1.07
2023-01-29T22:09:23.105Z,-1.10
2023-01-29T22:11:51.799Z,-1.12
2023-01-29T22:14:21.213Z,-1.17
2023-01-29T22:16:50.268Z,-1.23
2023-01-29T22:19:18.948Z,-1.28
2023-01-29T22:21:47.738Z,-1.33
2023-01-29T22:24:16.683Z,-1.37
2023-01-29T22:26:46.375Z,-1.40
2023-01-29T22:29:17.288Z,-1.43
2023-01-29T22:31:46.196Z,-1.46
2023-01-29T22:34:14.623Z,-1.49
2023-01-29T22:36:44.093Z,-1.52
2023-01-29T22:39:13.047Z,-1.56
2023-01-29T22:41:41.628Z,-1.60
2023-01-29T22:44:10.524Z,-1.62
2023-01-29T22:46:39.534Z,-1.63
2023-01-29T22:49:08.196Z,-1.65
2023-01-29T22:51:36.791Z,-1.66
2023-01-29T22:54:05.262Z,-1.67
2023-01-29T22:56:34.253Z,-1.67
2023-01-29T22:59:02.766Z,-1.66
2023-01-29T23:01:31.677Z,-1.69
2023-01-29T23:04:01.903Z,-1.68
2023-01-29T23:06:30.636Z,-1.68
2023-01-29T23:09:00.243Z,-1.67
2023-01-29T23:11:29.238Z,-1.67
2023-01-29T23:13:59.664Z,-1.66
2023-01-29T23:16:28.526Z,-1.66
2023-01-29T23:18:57.246Z,-1.67
2023-01-29T23:21:26.243Z,-1.67
2023-01-29T23:23:58.449Z,-1.70
2023-01-29T23:26:48.003Z,-1.73
2023-01-29T23:29:16.573Z,-1.76
2023-01-29T23:31:45.476Z,-1.79
2023-01-29T23:34:14.484Z,-1.83
2023-01-29T23:36:43.342Z,-1.86
2023-01-29T23:39:11.861Z,-1.87
2023-01-29T23:41:40.662Z,-1.85
2023-01-29T23:44:10.168Z,-1.83
2023-01-29T23:46:39.322Z,-1.82
2023-01-29T23:49:08.814Z,-1.82
2023-01-29T23:51:37.145Z,-1.85
2023-01-29T23:54:06.597Z,-1.85
2023-01-29T23:56:35.076Z,-1.86
2023-01-29T23:59:03.660Z,-1.87
